createdAt,value
2018-05-14T00:02:08.319Z,19.40
2018-05-14T00:04:36.660Z,19.00
2018-05-14T00:07:04.992Z,19.63
2018-05-14T00:09:33.353Z,17.73
2018-05-14T00:12:01.693Z,16.97
2018-05-14T00:14:30.040Z,17.40
2018-05-14T00:16:58.376Z,18.53
2018-05-14T00:19:26.737Z,17.33
2018-05-14T00:21:55.083Z,18.50
2018-05-14T00:24:23.429Z,19.23
2018-05-14T00:26:51.773Z,19.20
2018-05-14T00:29:20.129Z,18.63
2018-05-14T00:31:48.456Z,20.87
2018-05-14T00:34:16.819Z,20.70
2018-05-14T00:36:45.151Z,20.10
2018-05-14T00:39:13.502Z,18.37
2018-05-14T00:41:41.837Z,12.63
2018-05-14T00:44:10.195Z,12.07
2018-05-14T00:46:38.528Z,11.00
2018-05-14T00:49:06.884Z,10.03
2018-05-14T00:51:35.227Z,14.37
2018-05-14T00:54:03.579Z,11.67
2018-05-14T00:56:31.911Z,14.10
2018-05-14T00:59:00.273Z,14.87
2018-05-14T01:01:28.603Z,17.40
2018-05-14T01:03:56.937Z,18.03
2018-05-14T01:06:25.296Z,19.17
2018-05-14T01:08:53.634Z,17.57
2018-05-14T01:11:21.985Z,18.33
2018-05-14T01:13:50.315Z,17.30
2018-05-14T01:16:18.674Z,17.13
2018-05-14T01:18:47.008Z,18.83
2018-05-14T01:21:15.360Z,19.10
2018-05-14T01:23:43.708Z,19.13
2018-05-14T01:26:12.064Z,19.80
2018-05-14T01:28:40.396Z,25.30
2018-05-14T01:31:08.757Z,27.90
2018-05-14T01:33:37.096Z,27.80
2018-05-14T01:36:05.452Z,25.30
2018-05-14T01:38:33.788Z,22.60
2018-05-14T01:41:02.149Z,22.17
2018-05-14T01:43:30.489Z,22.80
2018-05-14T01:45:58.848Z,24.00
2018-05-14T01:48:27.193Z,26.77
2018-05-14T01:50:55.543Z,29.90
2018-05-14T01:53:23.878Z,34.40
2018-05-14T01:55:52.228Z,34.30
2018-05-14T01:58:20.566Z,29.40
2018-05-14T02:00:48.925Z,31.37
2018-05-14T02:03:17.265Z,29.60
2018-05-14T02:05:45.624Z,29.00
2018-05-14T02:08:13.961Z,27.87
2018-05-14T02:10:42.320Z,25.53
2018-05-14T02:13:10.658Z,33.20
2018-05-14T02:15:39.013Z,28.67
2018-05-14T02:18:07.352Z,30.57
2018-05-14T02:20:35.704Z,30.13
2018-05-14T02:23:04.059Z,25.60
2018-05-14T02:25:32.417Z,28.07
2018-05-14T02:28:00.756Z,26.67
2018-05-14T02:30:29.125Z,27.20
2018-05-14T02:32:57.464Z,25.20
2018-05-14T02:35:25.821Z,24.60
2018-05-14T02:37:54.161Z,26.13
2018-05-14T02:40:22.517Z,24.80
2018-05-14T02:42:50.845Z,22.77
2018-05-14T02:45:19.201Z,22.73
2018-05-14T02:47:47.533Z,21.23
2018-05-14T02:50:15.896Z,21.97
2018-05-14T02:52:44.232Z,21.10
2018-05-14T02:55:12.565Z,22.57
2018-05-14T02:57:40.917Z,21.10
2018-05-14T03:00:09.253Z,22.07
2018-05-14T03:02:37.609Z,20.20
2018-05-14T03:05:05.949Z,19.47
2018-05-14T03:07:34.293Z,19.23
2018-05-14T03:10:02.621Z,19.93
2018-05-14T03:12:30.973Z,17.20
2018-05-14T03:14:59.306Z,20.37
2018-05-14T03:17:27.656Z,18.40
2018-05-14T03:19:55.997Z,16.77
2018-05-14T03:22:24.357Z,16.40
2018-05-14T03:24:52.693Z,15.80
2018-05-14T03:27:21.045Z,15.60
2018-05-14T03:29:49.381Z,15.97
2018-05-14T03:32:17.733Z,16.43
2018-05-14T03:34:46.070Z,16.97
2018-05-14T03:37:14.420Z,16.20
2018-05-14T03:39:42.744Z,18.53
2018-05-14T03:42:11.096Z,15.50
2018-05-14T03:44:39.437Z,15.80
2018-05-14T03:47:07.797Z,16.23
2018-05-14T03:49:36.124Z,16.90
2018-05-14T03:52:04.476Z,17.30
2018-05-14T03:54:32.825Z,16.80
2018-05-14T03:57:01.168Z,18.43
2018-05-14T03:59:41.333Z,18.33
2018-05-14T04:02:23.206Z,18.37
2018-05-14T04:05:03.173Z,17.97
2018-05-14T04:07:31.530Z,20.60
2018-05-14T04:09:59.870Z,19.63
2018-05-14T04:12:29.137Z,20.03
2018-05-14T04:14:57.473Z,20.97
2018-05-14T04:17:25.828Z,20.00
2018-05-14T04:19:54.162Z,18.33
2018-05-14T04:22:22.512Z,19.07
2018-05-14T04:24:50.853Z,18.50
2018-05-14T04:27:19.213Z,19.23
2018-05-14T04:29:47.544Z,18.50
2018-05-14T04:32:15.905Z,19.07
2018-05-14T04:34:44.237Z,17.40
2018-05-14T04:37:12.594Z,17.03
2018-05-14T04:39:40.928Z,17.23
2018-05-14T04:42:09.296Z,15.90
2018-05-14T04:44:37.620Z,15.30
2018-05-14T04:47:05.977Z,13.90
2018-05-14T04:49:34.320Z,14.40
2018-05-14T04:52:02.722Z,13.50
2018-05-14T04:54:31.053Z,12.44
2018-05-14T04:56:59.412Z,13.40
2018-05-14T04:59:27.752Z,11.60
2018-05-14T05:01:56.136Z,12.05
2018-05-14T05:04:24.476Z,12.10
2018-05-14T05:06:52.848Z,12.40
2018-05-14T05:09:21.199Z,12.30
2018-05-14T05:11:49.561Z,12.30
2018-05-14T05:14:17.907Z,10.90
2018-05-14T05:16:46.270Z,11.50
2018-05-14T05:19:14.612Z,11.30
2018-05-14T05:21:42.981Z,10.47
2018-05-14T05:24:11.317Z,11.10
2018-05-14T05:26:39.682Z,10.10
2018-05-14T05:29:08.036Z,9.90
2018-05-14T05:31:36.371Z,11.43
2018-05-14T05:34:04.730Z,10.27
2018-05-14T05:36:33.208Z,10.60
2018-05-14T05:39:01.573Z,10.70
2018-05-14T05:41:29.911Z,10.20
2018-05-14T05:43:58.264Z,10.37
2018-05-14T05:46:26.604Z,10.27
2018-05-14T05:48:54.956Z,9.30
2018-05-14T05:51:23.285Z,8.90
2018-05-14T05:53:51.651Z,10.00
2018-05-14T05:56:19.985Z,9.97
2018-05-14T05:58:48.348Z,9.93
2018-05-14T06:01:16.680Z,9.87
2018-05-14T06:03:45.025Z,9.55
2018-05-14T06:06:13.356Z,9.20
2018-05-14T06:08:41.717Z,10.00
2018-05-14T06:11:10.064Z,10.70
2018-05-14T06:13:38.421Z,9.63
2018-05-14T06:16:07.553Z,9.75
2018-05-14T06:18:35.902Z,9.73
2018-05-14T06:21:04.226Z,9.20
2018-05-14T06:23:32.592Z,10.60
2018-05-14T06:26:00.933Z,9.83
2018-05-14T06:28:29.283Z,9.50
2018-05-14T06:30:57.614Z,8.88
2018-05-14T06:33:25.966Z,9.77
2018-05-14T06:35:54.289Z,9.97
2018-05-14T06:39:19.820Z,9.93
2018-05-14T06:41:48.170Z,10.50
2018-05-14T06:44:16.622Z,9.60
2018-05-14T06:46:44.848Z,9.10
2018-05-14T06:49:13.204Z,8.87
2018-05-14T06:51:41.532Z,8.85
2018-05-14T06:54:10.431Z,10.02
2018-05-14T06:56:38.613Z,9.20
2018-05-14T06:59:06.965Z,9.83
2018-05-14T07:01:35.288Z,9.90
2018-05-14T07:04:03.644Z,10.25
2018-05-14T07:06:32.464Z,9.00
2018-05-14T07:09:00.800Z,8.48
2018-05-14T07:11:29.151Z,9.13
2018-05-14T07:13:57.996Z,8.98
2018-05-14T07:16:26.329Z,8.90
2018-05-14T07:18:54.760Z,8.67
2018-05-14T07:21:23.120Z,8.88
2018-05-14T07:23:51.448Z,9.07
2018-05-14T07:26:19.776Z,8.73
2018-05-14T07:28:48.249Z,8.17
2018-05-14T07:31:16.598Z,8.33
2018-05-14T07:33:44.956Z,8.80
2018-05-14T07:36:13.358Z,8.13
2018-05-14T07:38:41.623Z,8.30
2018-05-14T07:41:10.148Z,8.40
2018-05-14T07:43:38.317Z,9.00
2018-05-14T07:46:06.728Z,8.57
2018-05-14T07:48:34.981Z,8.03
2018-05-14T07:51:03.312Z,8.50
2018-05-14T07:53:31.661Z,8.00
2018-05-14T07:56:00.021Z,8.60
2018-05-14T07:58:28.377Z,8.60
2018-05-14T08:00:56.688Z,8.13
2018-05-14T08:03:25.039Z,8.03
2018-05-14T08:05:53.377Z,7.60
2018-05-14T08:08:21.716Z,8.40
2018-05-14T08:10:50.050Z,7.40
2018-05-14T08:13:18.373Z,8.20
2018-05-14T08:15:46.721Z,7.40
2018-05-14T08:18:15.049Z,8.97
2018-05-14T08:20:43.392Z,9.73
2018-05-14T08:23:11.717Z,9.50
2018-05-14T08:25:40.056Z,9.30
2018-05-14T08:28:08.388Z,9.23
2018-05-14T08:30:36.733Z,9.37
2018-05-14T08:33:05.056Z,7.60
2018-05-14T08:35:33.406Z,7.77
2018-05-14T08:38:01.732Z,7.40
2018-05-14T08:40:30.071Z,7.93
2018-05-14T08:42:58.400Z,7.97
2018-05-14T08:45:26.740Z,8.07
2018-05-14T08:47:55.103Z,7.80
2018-05-14T08:50:23.404Z,7.93
2018-05-14T08:52:51.723Z,6.57
2018-05-14T08:55:20.072Z,7.20
2018-05-14T08:57:48.397Z,7.70
2018-05-14T09:00:16.739Z,7.17
2018-05-14T09:02:45.073Z,6.40
2018-05-14T09:05:13.426Z,6.70
2018-05-14T09:07:41.745Z,6.77
2018-05-14T09:10:10.088Z,6.30
2018-05-14T09:12:38.417Z,6.33
2018-05-14T09:15:06.761Z,6.40
2018-05-14T09:17:35.089Z,6.30
2018-05-14T09:20:03.433Z,5.30
2018-05-14T09:22:31.769Z,5.90
2018-05-14T09:25:00.105Z,5.50
2018-05-14T09:27:28.425Z,5.07
2018-05-14T09:29:56.773Z,6.50
2018-05-14T09:32:25.095Z,5.20
2018-05-14T09:34:53.448Z,6.03
2018-05-14T09:37:21.869Z,5.30
2018-05-14T09:39:50.112Z,5.17
2018-05-14T09:42:18.441Z,4.70
2018-05-14T09:44:46.780Z,4.83
2018-05-14T09:47:15.105Z,4.70
2018-05-14T09:49:43.448Z,5.10
2018-05-14T09:52:11.772Z,4.03
2018-05-14T09:54:40.105Z,4.90
2018-05-14T09:57:08.427Z,4.23
2018-05-14T09:59:36.773Z,4.37
2018-05-14T10:02:05.105Z,4.43
2018-05-14T10:04:33.448Z,4.00
2018-05-14T10:07:01.775Z,3.83
2018-05-14T10:09:30.128Z,4.37
2018-05-14T10:11:58.904Z,4.05
2018-05-14T10:14:27.235Z,4.30
2018-05-14T10:16:55.584Z,3.50
2018-05-14T10:19:23.899Z,3.40
2018-05-14T10:21:52.244Z,4.20
2018-05-14T10:24:20.566Z,3.53
2018-05-14T10:26:48.917Z,3.47
2018-05-14T10:29:17.244Z,4.20
2018-05-14T10:31:45.594Z,3.95
2018-05-14T10:34:13.921Z,3.45
2018-05-14T10:36:42.269Z,3.60
2018-05-14T10:39:10.592Z,3.80
2018-05-14T10:41:38.936Z,3.87
2018-05-14T10:44:07.265Z,3.63
2018-05-14T10:46:35.612Z,3.87
2018-05-14T10:49:03.933Z,4.60
2018-05-14T10:51:32.285Z,3.55
2018-05-14T10:54:00.609Z,4.33
2018-05-14T10:56:28.959Z,3.95
2018-05-14T10:58:57.290Z,3.47
2018-05-14T11:01:25.646Z,3.87
2018-05-14T11:03:54.022Z,3.77
2018-05-14T11:06:22.330Z,3.23
2018-05-14T11:08:50.686Z,3.57
2018-05-14T11:11:19.037Z,3.60
2018-05-14T11:13:47.360Z,3.23
2018-05-14T11:16:15.709Z,3.77
2018-05-14T11:18:44.114Z,3.13
2018-05-14T11:21:12.388Z,2.87
2018-05-14T11:23:40.717Z,3.50
2018-05-14T11:26:09.064Z,3.37
2018-05-14T11:28:37.392Z,3.47
2018-05-14T11:31:05.727Z,3.40
2018-05-14T11:33:34.053Z,4.45
2018-05-14T11:36:02.404Z,3.20
2018-05-14T11:38:30.730Z,2.83
2018-05-14T11:40:59.090Z,3.40
2018-05-14T11:43:27.420Z,3.70
2018-05-14T11:45:55.753Z,4.13
2018-05-14T11:48:24.126Z,3.30
2018-05-14T11:50:52.513Z,3.25
2018-05-14T11:53:20.800Z,2.70
2018-05-14T11:55:49.136Z,2.73
2018-05-14T11:58:18.064Z,3.20
2018-05-14T12:00:46.392Z,3.30
2018-05-14T12:03:14.844Z,3.57
2018-05-14T12:05:43.079Z,3.07
2018-05-14T12:08:11.430Z,3.40
2018-05-14T12:10:39.753Z,3.67
2018-05-14T12:13:08.105Z,3.87
2018-05-14T12:15:36.423Z,3.60
2018-05-14T12:18:05.235Z,3.15
2018-05-14T12:20:34.607Z,3.17
2018-05-14T12:23:03.276Z,3.50
2018-05-14T12:25:32.035Z,3.10
2018-05-14T12:28:00.963Z,3.50
2018-05-14T12:30:29.633Z,3.35
2018-05-14T12:32:58.312Z,3.70
2018-05-14T12:35:26.949Z,3.30
2018-05-14T12:37:55.601Z,3.50
2018-05-14T12:40:24.765Z,4.18
2018-05-14T12:42:53.860Z,2.60
2018-05-14T12:45:23.729Z,3.50
2018-05-14T12:47:52.402Z,3.33
2018-05-14T12:50:21.023Z,3.10
2018-05-14T12:52:49.710Z,3.20
2018-05-14T12:55:19.199Z,3.30
2018-05-14T12:57:47.984Z,2.62
2018-05-14T13:00:16.569Z,2.70
2018-05-14T13:02:45.252Z,4.07
2018-05-14T13:05:14.420Z,4.00
2018-05-14T13:07:43.055Z,3.20
2018-05-14T13:10:11.736Z,3.13
2018-05-14T13:12:40.589Z,3.42
2018-05-14T13:15:09.171Z,4.10
2018-05-14T13:17:38.220Z,4.15
2018-05-14T13:20:06.813Z,4.07
2018-05-14T13:22:35.570Z,3.43
2018-05-14T13:25:04.316Z,4.10
2018-05-14T13:27:33.169Z,3.13
2018-05-14T13:30:01.780Z,3.93
2018-05-14T13:32:30.560Z,3.60
2018-05-14T13:35:00.370Z,3.43
2018-05-14T13:37:29.193Z,3.73
2018-05-14T13:39:57.553Z,3.57
2018-05-14T13:42:25.905Z,3.90
2018-05-14T13:44:54.237Z,4.00
2018-05-14T13:47:23.427Z,7.63
2018-05-14T13:49:51.766Z,4.20
2018-05-14T13:52:20.123Z,4.07
2018-05-14T13:54:48.457Z,4.45
2018-05-14T13:57:16.785Z,4.20
2018-05-14T13:59:45.120Z,3.50
2018-05-14T14:02:13.444Z,4.43
2018-05-14T14:04:41.803Z,4.10
2018-05-14T14:07:11.205Z,4.30
2018-05-14T14:09:39.548Z,3.80
2018-05-14T14:12:07.873Z,4.70
2018-05-14T14:14:36.229Z,5.30
2018-05-14T14:17:04.583Z,3.60
2018-05-14T14:19:32.897Z,4.00
2018-05-14T14:22:01.227Z,4.07
2018-05-14T14:24:29.594Z,4.27
2018-05-14T14:26:57.916Z,3.87
2018-05-14T14:29:26.265Z,4.20
2018-05-14T14:31:54.597Z,4.70
2018-05-14T14:34:22.949Z,4.57
2018-05-14T14:36:51.277Z,4.22
2018-05-14T14:39:19.657Z,4.10
2018-05-14T14:41:48.105Z,3.60
2018-05-14T14:44:16.436Z,4.50
2018-05-14T14:46:45.777Z,4.07
2018-05-14T14:49:14.211Z,3.93
2018-05-14T14:51:42.453Z,3.57
2018-05-14T14:54:10.804Z,4.03
2018-05-14T14:56:39.133Z,3.58
2018-05-14T14:59:07.482Z,3.83
2018-05-14T15:01:35.812Z,3.50
2018-05-14T15:04:04.157Z,3.87
2018-05-14T15:06:32.565Z,3.85
2018-05-14T15:09:00.908Z,3.73
2018-05-14T15:11:29.232Z,2.90
2018-05-14T15:13:57.579Z,3.30
2018-05-14T15:16:25.918Z,4.20
2018-05-14T15:18:54.261Z,3.73
2018-05-14T15:21:22.678Z,3.75
2018-05-14T15:23:51.092Z,3.83
2018-05-14T15:26:20.409Z,3.78
2018-05-14T15:28:48.752Z,3.90
2018-05-14T15:31:17.073Z,3.10
2018-05-14T15:33:45.426Z,4.35
2018-05-14T15:36:13.762Z,3.58
2018-05-14T15:38:42.109Z,3.43
2018-05-14T15:41:10.441Z,3.40
2018-05-14T15:43:38.792Z,3.10
2018-05-14T15:46:07.208Z,3.28
2018-05-14T15:48:35.557Z,3.37
2018-05-14T15:51:03.881Z,3.33
2018-05-14T15:53:32.224Z,3.40
2018-05-14T15:56:00.549Z,2.90
2018-05-14T15:58:28.872Z,3.03
2018-05-14T16:00:57.223Z,3.67
2018-05-14T16:03:25.554Z,3.43
2018-05-14T16:05:54.940Z,3.30
2018-05-14T16:08:23.267Z,3.43
2018-05-14T16:10:51.612Z,3.40
2018-05-14T16:13:19.937Z,3.00
2018-05-14T16:15:48.287Z,2.90
2018-05-14T16:18:16.604Z,3.00
2018-05-14T16:20:45.064Z,3.33
2018-05-14T16:23:13.288Z,4.47
2018-05-14T16:25:41.684Z,3.17
2018-05-14T16:28:10.012Z,2.90
2018-05-14T16:30:38.364Z,3.33
2018-05-14T16:33:06.689Z,3.80
2018-05-14T16:35:35.040Z,3.35
2018-05-14T16:38:03.384Z,3.70
2018-05-14T16:43:05.367Z,3.20
2018-05-14T16:45:33.721Z,3.37
2018-05-14T16:48:02.068Z,3.00
2018-05-14T16:50:30.429Z,3.13
2018-05-14T16:52:58.757Z,3.37
2018-05-14T16:55:27.127Z,2.77
2018-05-14T16:57:55.477Z,3.10
2018-05-14T17:00:23.791Z,3.75
2018-05-14T17:02:52.124Z,3.27
2018-05-14T17:05:20.485Z,3.70
2018-05-14T17:07:48.821Z,3.17
2018-05-14T17:10:17.186Z,3.30
2018-05-14T17:12:45.526Z,3.70
2018-05-14T17:15:13.872Z,3.10
2018-05-14T17:17:42.205Z,3.33
2018-05-14T17:20:10.557Z,3.40
2018-05-14T17:22:38.885Z,3.65
2018-05-14T17:25:07.240Z,4.07
2018-05-14T17:27:35.591Z,3.97
2018-05-14T17:30:04.310Z,3.77
2018-05-14T17:32:32.630Z,4.83
2018-05-14T17:35:00.985Z,6.00
2018-05-14T17:37:29.326Z,5.03
2018-05-14T17:39:57.685Z,4.00
2018-05-14T17:42:26.017Z,3.27
2018-05-14T17:44:54.370Z,3.40
2018-05-14T17:47:22.701Z,3.60
2018-05-14T17:49:51.056Z,4.00
2018-05-14T17:52:19.395Z,3.55
2018-05-14T17:54:47.756Z,3.87
2018-05-14T17:57:16.076Z,3.30
2018-05-14T17:59:44.437Z,4.07
2018-05-14T18:02:12.769Z,3.78
2018-05-14T18:04:41.117Z,4.50
2018-05-14T18:07:09.463Z,3.27
2018-05-14T18:09:37.793Z,3.30
2018-05-14T18:12:06.147Z,2.83
2018-05-14T18:14:34.465Z,3.90
2018-05-14T18:17:02.817Z,3.53
2018-05-14T18:19:36.745Z,3.55
2018-05-14T18:22:10.613Z,3.53
2018-05-14T18:24:38.953Z,3.72
2018-05-14T18:27:09.097Z,3.10
2018-05-14T18:29:38.765Z,3.30
2018-05-14T18:32:07.112Z,4.37
2018-05-14T18:34:39.350Z,3.77
2018-05-14T18:37:08.117Z,3.10
2018-05-14T18:39:36.456Z,3.20
2018-05-14T18:42:04.797Z,3.10
2018-05-14T18:44:34.025Z,3.47
2018-05-14T18:47:02.393Z,3.70
2018-05-14T18:49:30.907Z,2.92
2018-05-14T18:51:59.282Z,3.10
2018-05-14T18:54:27.594Z,3.85
2018-05-14T18:56:55.953Z,4.13
2018-05-14T18:59:24.351Z,4.00
2018-05-14T19:01:52.944Z,3.40
2018-05-14T19:04:21.285Z,4.03
2018-05-14T19:06:49.827Z,3.13
2018-05-14T19:09:18.149Z,4.12
2018-05-14T19:11:52.449Z,3.37
2018-05-14T19:14:20.812Z,3.47
2018-05-14T19:16:54.896Z,3.60
2018-05-14T19:19:23.673Z,3.30
2018-05-14T19:21:52.030Z,3.80
2018-05-14T19:24:20.601Z,3.80
2018-05-14T19:26:50.131Z,3.30
2018-05-14T19:29:24.243Z,2.93
2018-05-14T19:31:52.545Z,3.50
2018-05-14T19:34:26.415Z,3.60
2018-05-14T19:36:54.757Z,2.80
2018-05-14T19:39:28.824Z,3.37
2018-05-14T19:41:57.171Z,3.67
2018-05-14T19:44:25.496Z,3.70
2018-05-14T19:46:53.852Z,3.65
2018-05-14T19:49:22.188Z,3.37
2018-05-14T19:51:50.833Z,3.58
2018-05-14T19:54:19.547Z,3.40
2018-05-14T19:56:48.264Z,3.53
2018-05-14T19:59:17.056Z,3.47
2018-05-14T20:01:45.789Z,3.47
2018-05-14T20:04:14.555Z,3.30
2018-05-14T20:06:43.247Z,4.03
2018-05-14T20:09:11.545Z,3.87
2018-05-14T20:11:39.895Z,3.27
2018-05-14T20:14:08.227Z,3.65
2018-05-14T20:16:36.576Z,3.43
2018-05-14T20:19:04.906Z,2.70
2018-05-14T20:21:33.519Z,3.60
2018-05-14T20:24:02.193Z,3.30
2018-05-14T20:26:31.061Z,3.40
2018-05-14T20:28:59.825Z,3.43
2018-05-14T20:31:28.664Z,3.47
2018-05-14T20:33:57.374Z,3.00
2018-05-14T20:36:26.179Z,3.40
2018-05-14T20:38:54.824Z,3.70
2018-05-14T20:41:23.562Z,3.30
2018-05-14T20:43:52.231Z,4.00
2018-05-14T20:46:21.886Z,3.40
2018-05-14T20:48:50.428Z,3.10
2018-05-14T20:51:18.744Z,3.42
2018-05-14T20:53:47.088Z,3.70
2018-05-14T20:56:15.424Z,3.60
2018-05-14T20:58:43.777Z,3.20
2018-05-14T21:01:12.124Z,3.30
2018-05-14T21:03:40.472Z,3.40
2018-05-14T21:06:08.798Z,3.70
2018-05-14T21:08:37.150Z,3.55
2018-05-14T21:11:05.477Z,4.00
2018-05-14T21:13:33.821Z,3.20
2018-05-14T21:16:02.160Z,3.75
2018-05-14T21:18:30.513Z,3.90
2018-05-14T21:20:58.836Z,3.63
2018-05-14T21:23:27.193Z,4.10
2018-05-14T21:25:55.522Z,3.90
2018-05-14T21:28:23.869Z,3.85
2018-05-14T21:30:52.209Z,3.55
2018-05-14T21:33:20.548Z,3.60
2018-05-14T21:35:48.877Z,3.50
2018-05-14T21:38:17.221Z,3.80
2018-05-14T21:40:45.541Z,3.13
2018-05-14T21:43:13.891Z,4.50
2018-05-14T21:45:42.217Z,4.37
2018-05-14T21:48:10.560Z,3.40
2018-05-14T21:50:38.884Z,3.53
2018-05-14T21:53:07.232Z,3.60
2018-05-14T21:55:35.558Z,4.03
2018-05-14T21:58:03.901Z,3.23
2018-05-14T22:00:32.224Z,3.20
2018-05-14T22:03:00.564Z,3.43
2018-05-14T22:05:28.885Z,4.17
2018-05-14T22:07:57.225Z,3.30
2018-05-14T22:10:25.548Z,3.83
2018-05-14T22:12:53.894Z,3.23
2018-05-14T22:15:22.220Z,4.03
2018-05-14T22:17:50.564Z,4.63
2018-05-14T22:20:18.892Z,4.03
2018-05-14T22:22:47.235Z,3.60
2018-05-14T22:25:15.560Z,3.80
2018-05-14T22:27:43.910Z,3.90
2018-05-14T22:30:12.233Z,3.50
2018-05-14T22:32:40.585Z,3.70
2018-05-14T22:35:08.909Z,4.37
2018-05-14T22:37:37.259Z,4.60
2018-05-14T22:40:05.589Z,3.80
2018-05-14T22:42:33.940Z,4.43
2018-05-14T22:45:02.280Z,3.60
2018-05-14T22:47:30.627Z,3.47
2018-05-14T22:49:58.944Z,3.90
2018-05-14T22:52:27.273Z,3.73
2018-05-14T22:54:55.616Z,4.37
2018-05-14T22:57:23.932Z,4.40
2018-05-14T22:59:52.272Z,3.40
2018-05-14T23:02:20.592Z,3.50
2018-05-14T23:04:48.942Z,4.40
2018-05-14T23:07:17.263Z,3.80
2018-05-14T23:09:45.604Z,3.43
2018-05-14T23:12:13.929Z,3.67
2018-05-14T23:14:42.268Z,3.27
2018-05-14T23:17:10.609Z,3.47
2018-05-14T23:19:38.966Z,4.40
2018-05-14T23:22:07.294Z,3.57
2018-05-14T23:24:35.639Z,4.27
2018-05-14T23:27:03.955Z,3.90
2018-05-14T23:29:32.309Z,4.00
2018-05-14T23:32:00.636Z,3.80
2018-05-14T23:34:28.985Z,4.67
2018-05-14T23:36:57.322Z,4.57
2018-05-14T23:39:25.669Z,4.10
2018-05-14T23:41:54.001Z,4.50
2018-05-14T23:44:22.348Z,3.87
2018-05-14T23:46:50.681Z,4.40
2018-05-14T23:49:19.033Z,4.40
2018-05-14T23:51:47.364Z,5.23
2018-05-14T23:54:15.721Z,4.30
2018-05-14T23:56:44.054Z,4.47
2018-05-14T23:59:12.405Z,4.60
